Time;durP1;ratioP1;P1;durP2;ratioP2;P2;SDS_P1;SDS_P2;PMS_P1;PMS_P2;Temp;Humidity;BMP_temperature;BMP_pressure;BME280_temperature;BME280_humidity;BME280_pressure;Samples;Min_cycle;Max_cycle;Signal;HPM_P1;HPM_P2
2021/03/28 00:02:35;;;;;;;13.50;6.75;;;2.50;99.90;;;;;;5031863;28;20028;-71
2021/03/28 00:05:06;;;;;;;12.57;7.05;;;2.40;99.90;;;;;;5031155;28;20391;-71
2021/03/28 00:07:47;;;;;;;10.93;7.18;;;2.30;99.90;;;;;;5034135;28;20026;-72
2021/03/28 00:10:43;;;;;;;10.93;6.97;;;2.10;99.90;;;;;;5029782;28;20018;-70
2021/03/28 00:13:23;;;;;;;12.67;7.60;;;2.20;99.90;;;;;;5021062;28;20025;-70
2021/03/28 00:15:57;;;;;;;13.98;8.07;;;2.20;99.90;;;;;;5027987;28;20762;-71
2021/03/28 00:18:48;;;;;;;11.50;6.82;;;1.80;99.90;;;;;;5034778;28;20031;-71
2021/03/28 00:21:24;;;;;;;10.57;6.90;;;2.00;99.90;;;;;;5036521;28;20100;-70
2021/03/28 00:24:07;;;;;;;11.48;7.63;;;1.90;99.90;;;;;;5024723;28;20496;-70
2021/03/28 00:26:40;;;;;;;12.23;7.70;;;2.00;99.90;;;;;;5038749;28;20048;-71
2021/03/28 00:29:25;;;;;;;12.30;6.95;;;2.00;99.90;;;;;;5035019;28;20018;-70
2021/03/28 00:32:01;;;;;;;9.98;7.15;;;2.00;99.90;;;;;;5024096;28;20026;-70
2021/03/28 00:34:31;;;;;;;9.02;6.75;;;1.60;99.90;;;;;;5022319;28;20468;-70
2021/03/28 00:37:01;;;;;;;10.98;7.00;;;1.80;99.90;;;;;;5030219;28;20026;-70
2021/03/28 00:39:49;;;;;;;9.00;7.60;;;1.90;99.90;;;;;;5040646;28;20468;-70
2021/03/28 00:42:52;;;;;;;10.23;5.95;;;2.00;99.90;;;;;;5044741;28;20125;-73
2021/03/28 00:45:47;;;;;;;8.68;5.93;;;2.00;99.90;;;;;;5025740;28;20042;-71
2021/03/28 00:48:26;;;;;;;10.25;5.78;;;1.90;99.90;;;;;;5025255;28;20025;-71
2021/03/28 00:51:12;;;;;;;9.48;5.35;;;1.80;99.90;;;;;;5019699;28;20025;-71
2021/03/28 00:54:01;;;;;;;9.68;5.82;;;1.90;99.90;;;;;;5024732;28;20401;-72
2021/03/28 00:56:44;;;;;;;10.25;5.93;;;1.90;99.90;;;;;;5038967;28;20116;-72
2021/03/28 00:59:22;;;;;;;9.73;5.85;;;1.80;99.90;;;;;;5020646;28;20494;-73
2021/03/28 01:02:04;;;;;;;8.57;5.55;;;1.90;99.90;;;;;;5023552;28;20057;-71
2021/03/28 01:05:22;;;;;;;12.80;5.95;;;1.90;99.90;;;;;;5025056;28;20025;-71
2021/03/28 01:07:57;;;;;;;11.27;6.70;;;2.00;99.90;;;;;;5000032;28;20041;-72
2021/03/28 01:10:52;;;;;;;8.07;5.72;;;1.90;99.90;;;;;;5021373;28;20072;-72
2021/03/28 01:13:55;;;;;;;11.23;6.38;;;2.00;99.90;;;;;;5022108;28;20387;-72
2021/03/28 01:16:34;;;;;;;9.60;6.50;;;2.10;99.90;;;;;;5034723;28;20164;-71
2021/03/28 01:19:37;;;;;;;11.07;7.32;;;2.00;99.90;;;;;;5020224;28;20029;-70
2021/03/28 01:22:28;;;;;;;14.07;7.00;;;2.10;99.90;;;;;;5021158;28;20507;-71
2021/03/28 01:25:08;;;;;;;12.00;7.18;;;2.10;99.90;;;;;;5032500;28;20426;-71
2021/03/28 01:27:44;;;;;;;9.25;6.20;;;2.10;99.90;;;;;;5033048;28;20029;-71
2021/03/28 01:30:16;;;;;;;15.10;6.60;;;2.20;99.90;;;;;;5026834;28;20036;-72
2021/03/28 01:32:42;;;;;;;8.13;5.60;;;2.30;99.90;;;;;;5019983;28;20638;-73
2021/03/28 01:35:11;;;;;;;9.95;6.35;;;2.30;99.90;;;;;;5020472;28;20068;-72
2021/03/28 01:38:10;;;;;;;9.38;6.03;;;2.40;99.90;;;;;;5028026;28;20575;-72
2021/03/28 01:40:53;;;;;;;8.73;5.88;;;2.40;99.90;;;;;;5036391;28;20390;-72
2021/03/28 01:43:29;;;;;;;8.35;6.00;;;2.40;99.90;;;;;;5040808;28;20571;-74
2021/03/28 01:46:29;;;;;;;7.47;5.00;;;2.30;99.90;;;;;;5022766;28;20055;-72
2021/03/28 01:48:57;;;;;;;8.85;5.22;;;2.30;99.90;;;;;;5027884;28;20029;-72
2021/03/28 01:51:48;;;;;;;8.38;5.13;;;2.50;99.90;;;;;;5027579;28;20116;-73
2021/03/28 01:54:40;;;;;;;7.70;4.80;;;2.50;99.90;;;;;;5023146;28;20507;-73
2021/03/28 01:57:36;;;;;;;7.78;4.72;;;2.50;99.90;;;;;;5026024;28;20030;-73
2021/03/28 02:00:26;;;;;;;8.50;4.78;;;2.60;99.90;;;;;;5035937;28;20369;-72
2021/03/28 02:03:01;;;;;;;8.82;4.72;;;2.60;99.90;;;;;;5037304;28;20036;-73
2021/03/28 02:05:53;;;;;;;8.50;4.60;;;2.60;99.90;;;;;;5022807;28;20027;-72
2021/03/28 02:08:37;;;;;;;7.38;4.38;;;2.70;99.90;;;;;;5020794;28;20100;-73
2021/03/28 02:11:25;;;;;;;8.05;4.60;;;2.70;99.90;;;;;;5020295;28;20033;-74
2021/03/28 02:14:07;;;;;;;9.18;4.93;;;2.80;99.90;;;;;;5022813;28;20025;-73
2021/03/28 02:16:59;;;;;;;8.68;4.80;;;2.90;99.90;;;;;;5019930;28;20128;-73
2021/03/28 02:19:37;;;;;;;9.23;5.57;;;2.80;99.90;;;;;;5025343;28;20153;-74
2021/03/28 02:22:14;;;;;;;7.38;5.32;;;2.80;99.90;;;;;;5035782;28;20041;-74
2021/03/28 02:24:44;;;;;;;13.13;5.82;;;2.80;99.90;;;;;;5019862;28;20022;-73
2021/03/28 02:27:28;;;;;;;8.98;5.10;;;2.80;99.90;;;;;;5018687;28;20453;-72
2021/03/28 02:30:05;;;;;;;7.95;5.03;;;2.80;99.90;;;;;;5022123;28;20029;-72
2021/03/28 02:32:42;;;;;;;12.38;5.25;;;2.70;99.90;;;;;;5027257;28;20022;-72
2021/03/28 02:35:45;;;;;;;6.82;4.82;;;2.80;99.90;;;;;;5027101;28;20049;-73
2021/03/28 02:38:28;;;;;;;8.82;4.68;;;2.70;99.90;;;;;;5021283;28;20080;-73
2021/03/28 02:41:06;;;;;;;10.25;5.00;;;2.80;99.90;;;;;;5021003;28;20022;-71
2021/03/28 02:43:50;;;;;;;10.15;4.80;;;3.00;99.90;;;;;;5018710;28;21350;-72
2021/03/28 02:46:48;;;;;;;9.20;4.80;;;3.00;99.90;;;;;;5019882;28;20045;-73
2021/03/28 02:49:48;;;;;;;8.82;4.60;;;3.10;99.90;;;;;;5023296;28;20390;-73
2021/03/28 02:52:25;;;;;;;9.10;4.55;;;3.20;99.90;;;;;;5021147;28;20029;-72
2021/03/28 02:55:28;;;;;;;6.22;4.38;;;3.30;99.90;;;;;;5019613;28;20032;-70
2021/03/28 02:57:56;;;;;;;9.23;4.25;;;3.40;99.90;;;;;;5018452;28;20057;-72
2021/03/28 03:00:45;;;;;;;8.93;4.38;;;3.20;99.90;;;;;;5024879;28;20114;-71
2021/03/28 03:03:42;;;;;;;8.45;4.25;;;3.40;99.90;;;;;;5018290;28;20452;-71
2021/03/28 03:06:32;;;;;;;9.63;4.32;;;3.40;99.90;;;;;;5037549;28;20053;-72
2021/03/28 03:09:07;;;;;;;9.55;4.50;;;3.50;99.90;;;;;;5019993;28;20482;-73
2021/03/28 03:11:50;;;;;;;7.03;4.60;;;3.50;99.90;;;;;;5025952;28;20021;-74
2021/03/28 03:14:39;;;;;;;6.85;4.13;;;3.60;99.90;;;;;;5026176;28;20034;-74
2021/03/28 03:17:42;;;;;;;11.80;4.55;;;3.50;99.90;;;;;;5024343;28;20025;-72
2021/03/28 03:20:45;;;;;;;10.27;4.63;;;3.50;99.90;;;;;;5022537;28;20076;-72
2021/03/28 03:23:36;;;;;;;9.13;4.60;;;3.50;99.90;;;;;;5034343;28;20041;-72
2021/03/28 03:26:15;;;;;;;9.40;4.40;;;3.60;99.90;;;;;;5027791;28;20021;-73
2021/03/28 03:28:57;;;;;;;7.50;4.82;;;3.50;99.90;;;;;;5025805;28;20064;-72
2021/03/28 03:31:40;;;;;;;8.57;4.50;;;3.60;99.90;;;;;;5020814;28;20025;-72
2021/03/28 03:34:12;;;;;;;9.27;4.03;;;3.60;99.90;;;;;;5043539;28;20045;-73
2021/03/28 03:37:02;;;;;;;9.05;4.53;;;3.60;99.90;;;;;;5020538;28;20040;-72
2021/03/28 03:39:48;;;;;;;7.43;3.92;;;3.60;99.90;;;;;;5028773;28;20041;-72
2021/03/28 03:42:48;;;;;;;7.18;4.20;;;3.60;99.90;;;;;;5030263;28;20021;-71
2021/03/28 03:45:40;;;;;;;8.20;4.63;;;3.60;99.90;;;;;;5041104;28;20040;-71
2021/03/28 03:48:08;;;;;;;8.82;4.35;;;3.70;99.90;;;;;;5019805;28;20057;-70
2021/03/28 03:50:57;;;;;;;6.65;4.65;;;3.70;99.90;;;;;;5037415;28;20160;-71
2021/03/28 03:53:48;;;;;;;8.75;4.38;;;3.80;99.90;;;;;;5033769;28;20072;-72
2021/03/28 03:56:25;;;;;;;10.38;4.90;;;3.80;99.90;;;;;;5024764;28;20040;-71
2021/03/28 03:59:16;;;;;;;10.45;5.03;;;3.80;99.90;;;;;;5019832;28;20512;-71
2021/03/28 04:01:52;;;;;;;10.88;4.85;;;3.80;99.90;;;;;;5023081;28;20554;-71
2021/03/28 04:04:20;;;;;;;;;;;3.90;99.90;;;;;;5039603;28;20025;-71
2021/03/28 04:07:23;;;;;;;8.23;4.75;;;3.90;99.90;;;;;;5025335;28;19905;-71
2021/03/28 04:10:07;;;;;;;13.45;5.32;;;3.90;99.90;;;;;;5017154;28;20538;-72
2021/03/28 04:13:01;;;;;;;11.02;4.40;;;3.80;99.90;;;;;;5018378;28;20022;-74
2021/03/28 04:15:42;;;;;;;8.38;4.32;;;3.90;99.90;;;;;;5031685;28;20029;-72
2021/03/28 04:18:33;;;;;;;8.82;4.38;;;3.90;99.90;;;;;;5017351;28;20025;-71
2021/03/28 04:21:13;;;;;;;8.60;4.95;;;3.90;99.90;;;;;;5017144;28;20048;-71
2021/03/28 04:23:55;;;;;;;8.93;5.00;;;3.90;99.90;;;;;;5019777;28;20531;-73
2021/03/28 04:26:43;;;;;;;7.97;5.10;;;4.00;99.90;;;;;;5019470;28;20025;-71
2021/03/28 04:29:12;;;;;;;10.05;4.88;;;3.90;99.90;;;;;;5017325;28;20072;-72
2021/03/28 04:31:41;;;;;;;8.15;4.53;;;3.80;99.90;;;;;;5020506;28;20468;-70
2021/03/28 04:34:18;;;;;;;10.02;5.00;;;3.80;99.90;;;;;;5024965;28;20037;-70
2021/03/28 04:37:21;;;;;;;8.38;4.95;;;3.80;99.90;;;;;;5010619;28;20457;-71
2021/03/28 04:40:30;;;;;;;9.25;5.32;;;3.70;99.90;;;;;;5021700;28;20022;-71
2021/03/28 04:43:30;;;;;;;11.23;5.43;;;3.70;99.90;;;;;;5022074;28;20083;-71
2021/03/28 04:46:19;;;;;;;8.40;5.10;;;3.80;99.90;;;;;;5026738;28;20116;-72
2021/03/28 04:49:06;;;;;;;10.27;5.10;;;3.80;99.90;;;;;;5030657;28;20029;-71
2021/03/28 04:52:09;;;;;;;8.88;4.97;;;3.90;99.90;;;;;;5028672;28;20064;-72
2021/03/28 04:54:53;;;;;;;12.35;5.82;;;4.00;99.90;;;;;;5022359;28;20061;-72
2021/03/28 04:57:25;;;;;;;8.68;5.70;;;4.00;99.90;;;;;;5039488;28;20021;-71
2021/03/28 05:00:08;;;;;;;10.80;5.80;;;4.20;99.90;;;;;;5032406;28;20029;-73
2021/03/28 05:02:51;;;;;;;11.85;5.70;;;4.00;99.90;;;;;;5027002;28;20104;-71
2021/03/28 05:05:55;;;;;;;9.10;5.57;;;4.10;99.90;;;;;;5022695;28;20059;-72
2021/03/28 05:08:40;;;;;;;12.82;6.35;;;4.10;99.90;;;;;;5021855;28;20022;-71
2021/03/28 05:11:11;;;;;;;10.43;5.43;;;4.10;99.90;;;;;;5021585;28;20030;-70
2021/03/28 05:14:15;;;;;;;9.85;5.88;;;4.10;99.90;;;;;;5025766;28;20152;-71
2021/03/28 05:17:19;;;;;;;9.68;5.72;;;4.10;99.90;;;;;;5023460;28;20025;-71
2021/03/28 05:20:14;;;;;;;10.20;5.78;;;4.20;99.90;;;;;;5021571;28;20036;-69
2021/03/28 05:22:39;;;;;;;9.75;5.43;;;4.20;99.90;;;;;;5019741;28;20037;-70
2021/03/28 05:25:40;;;;;;;9.90;5.93;;;4.30;99.90;;;;;;5024723;28;20476;-71
2021/03/28 05:29:02;;;;;;;10.10;6.00;;;4.30;99.90;;;;;;5023002;28;20057;-71
2021/03/28 05:31:43;;;;;;;9.13;6.30;;;4.30;99.90;;;;;;5001947;28;20121;-70
2021/03/28 05:34:27;;;;;;;11.27;6.15;;;4.30;99.90;;;;;;5007914;28;20568;-71
2021/03/28 05:37:27;;;;;;;9.98;5.90;;;4.30;99.90;;;;;;5023823;28;20034;-69
2021/03/28 05:40:17;;;;;;;12.43;6.72;;;4.40;99.90;;;;;;5038089;28;20025;-69
2021/03/28 05:42:53;;;;;;;13.55;6.00;;;4.40;99.90;;;;;;5022788;28;20032;-70
2021/03/28 05:45:46;;;;;;;10.60;5.45;;;4.40;99.90;;;;;;5019870;28;20059;-69
2021/03/28 05:48:50;;;;;;;14.00;7.10;;;4.40;99.90;;;;;;5047720;28;20021;-71
2021/03/28 05:51:49;;;;;;;11.85;6.45;;;4.40;99.90;;;;;;5014329;28;20022;-74
2021/03/28 05:54:52;;;;;;;9.77;6.18;;;4.40;99.90;;;;;;5024168;28;20121;-71
2021/03/28 05:57:43;;;;;;;11.95;7.45;;;4.50;99.90;;;;;;5020094;28;20085;-72
2021/03/28 06:00:24;;;;;;;12.88;7.57;;;4.50;99.90;;;;;;5020831;28;20021;-72
2021/03/28 06:03:06;;;;;;;10.32;7.55;;;4.50;99.90;;;;;;5020667;28;20105;-72
2021/03/28 06:06:13;;;;;;;13.23;7.80;;;4.50;99.90;;;;;;5023019;28;20026;-72
2021/03/28 06:08:59;;;;;;;13.63;9.10;;;4.70;99.90;;;;;;5014244;28;20033;-71
2021/03/28 06:11:59;;;;;;;10.95;6.82;;;4.70;99.90;;;;;;5044578;28;20060;-71
2021/03/28 06:14:51;;;;;;;16.67;13.88;;;4.80;99.90;;;;;;5018940;28;20042;-72
2021/03/28 06:17:35;;;;;;;13.02;7.88;;;4.80;99.90;;;;;;5026940;28;20554;-72
2021/03/28 06:20:19;;;;;;;13.32;10.18;;;4.80;99.90;;;;;;5022694;28;20033;-72
2021/03/28 06:23:11;;;;;;;13.50;8.85;;;4.90;99.90;;;;;;5018804;28;20561;-72
2021/03/28 06:26:00;;;;;;;12.13;7.28;;;5.00;99.90;;;;;;5019743;28;20069;-72
2021/03/28 06:28:56;;;;;;;14.40;7.50;;;5.00;99.90;;;;;;5022542;28;20496;-72
2021/03/28 06:31:54;;;;;;;11.65;7.85;;;5.10;99.90;;;;;;5021966;28;20638;-72
2021/03/28 06:35:03;;;;;;;11.85;7.82;;;5.10;99.90;;;;;;5020029;28;20108;-72
2021/03/28 06:37:55;;;;;;;13.45;8.50;;;5.10;99.90;;;;;;5019108;28;20025;-71
2021/03/28 06:40:50;;;;;;;12.32;7.38;;;5.20;99.90;;;;;;5017429;28;20516;-71
2021/03/28 06:43:34;;;;;;;11.98;8.05;;;5.20;99.90;;;;;;5020649;28;20030;-71
2021/03/28 06:46:18;;;;;;;11.23;8.18;;;5.20;99.90;;;;;;5021987;28;20438;-72
2021/03/28 06:49:15;;;;;;;13.90;7.63;;;5.30;99.90;;;;;;5019883;28;20109;-72
2021/03/28 06:51:51;;;;;;;12.95;7.00;;;5.30;99.90;;;;;;5019671;28;20025;-71
2021/03/28 06:54:29;;;;;;;11.20;5.75;;;5.40;99.90;;;;;;5023434;28;20025;-72
2021/03/28 06:57:28;;;;;;;14.23;6.90;;;5.50;99.90;;;;;;5026352;28;20423;-72
2021/03/28 07:00:01;;;;;;;10.23;6.38;;;5.50;99.90;;;;;;5025240;28;20037;-71
2021/03/28 07:02:38;;;;;;;10.02;6.22;;;5.60;99.90;;;;;;5023257;28;20044;-73
2021/03/28 07:05:39;;;;;;;12.07;6.13;;;5.70;99.90;;;;;;5019792;28;20606;-71
2021/03/28 07:08:12;;;;;;;12.63;6.40;;;5.70;99.90;;;;;;5019179;28;20030;-72
2021/03/28 07:11:02;;;;;;;13.20;6.28;;;5.70;99.90;;;;;;5031491;28;20037;-72
2021/03/28 07:14:04;;;;;;;11.45;6.07;;;5.80;99.90;;;;;;5019626;28;20030;-72
2021/03/28 07:16:50;;;;;;;12.20;6.32;;;5.70;99.90;;;;;;5020409;28;20392;-72
2021/03/28 07:20:02;;;;;;;12.32;6.20;;;5.80;99.90;;;;;;4996101;28;20034;-72
2021/03/28 07:22:49;;;;;;;9.90;6.03;;;5.80;99.90;;;;;;5046529;28;20036;-71
2021/03/28 07:25:41;;;;;;;12.27;6.03;;;5.80;99.90;;;;;;5044939;28;20630;-72
2021/03/28 07:28:25;;;;;;;14.85;6.30;;;5.90;99.90;;;;;;5019883;28;20025;-72
2021/03/28 07:31:23;;;;;;;10.75;6.03;;;6.00;99.90;;;;;;5027706;28;20037;-72
2021/03/28 07:34:07;;;;;;;15.38;6.05;;;6.10;99.90;;;;;;5025306;28;20030;-71
2021/03/28 07:37:13;;;;;;;12.25;6.30;;;6.30;99.90;;;;;;5023393;28;20025;-71
2021/03/28 07:40:19;;;;;;;10.60;5.32;;;6.40;99.90;;;;;;5010190;28;20120;-73
2021/03/28 07:43:23;;;;;;;12.05;6.05;;;6.50;99.90;;;;;;5031771;28;20057;-72
2021/03/28 07:46:13;;;;;;;11.38;6.47;;;6.60;99.90;;;;;;5024108;28;20021;-72
2021/03/28 07:48:59;;;;;;;12.23;5.78;;;6.60;99.90;;;;;;5031678;28;20079;-72
2021/03/28 07:51:34;;;;;;;13.45;6.03;;;6.60;99.90;;;;;;5027031;28;20032;-71
2021/03/28 07:54:26;;;;;;;12.20;5.85;;;6.70;99.90;;;;;;5030533;28;20053;-71
2021/03/28 07:57:19;;;;;;;10.23;6.00;;;6.60;99.90;;;;;;5025479;28;20488;-74
2021/03/28 08:00:13;;;;;;;8.70;5.68;;;6.60;99.90;;;;;;5032990;28;20025;-73
2021/03/28 08:03:17;;;;;;;13.25;5.70;;;6.60;99.90;;;;;;5041444;28;20028;-72
2021/03/28 08:06:06;;;;;;;9.32;5.78;;;6.50;99.90;;;;;;5030988;28;20018;-69
2021/03/28 08:08:34;;;;;;;10.27;5.80;;;6.50;99.90;;;;;;5026491;28;20025;-70
2021/03/28 08:24:19;;;;;;;13.00;6.40;;;7.00;99.90;;;;;;6076484;23;20009;-71
2021/03/28 08:27:09;;;;;;;9.52;5.72;;;7.30;99.90;;;;;;4995157;28;20034;-73
2021/03/28 08:30:12;;;;;;;15.20;5.22;;;7.40;99.90;;;;;;4996562;28;20106;-74
2021/03/28 08:33:10;;;;;;;12.00;6.25;;;7.50;99.90;;;;;;4994445;28;20027;-73
2021/03/28 08:35:52;;;;;;;35.00;20.30;;;7.40;99.90;;;;;;4979473;28;20034;-72
2021/03/28 08:38:40;;;;;;;32.33;20.92;;;7.60;99.90;;;;;;4979405;28;20022;-71
2021/03/28 08:41:41;;;;;;;16.90;11.00;;;7.70;99.90;;;;;;4978765;28;20019;-72
2021/03/28 08:44:18;;;;;;;24.30;13.18;;;7.80;99.90;;;;;;4978361;28;20031;-69
2021/03/28 08:47:00;;;;;;;14.90;6.97;;;7.90;99.90;;;;;;4979140;28;20034;-72
2021/03/28 08:49:52;;;;;;;11.95;6.50;;;7.90;99.90;;;;;;4978987;28;20210;-71
2021/03/28 08:52:46;;;;;;;12.88;6.32;;;7.90;99.90;;;;;;4978876;28;20061;-71
2021/03/28 08:55:49;;;;;;;15.95;5.22;;;7.90;99.90;;;;;;4977031;28;20031;-71
2021/03/28 08:58:17;;;;;;;10.60;5.35;;;8.00;99.90;;;;;;4975837;28;20029;-69
2021/03/28 09:00:59;;;;;;;11.85;5.57;;;8.10;99.90;;;;;;4972337;28;20027;-71
2021/03/28 09:03:52;;;;;;;11.82;5.47;;;8.20;99.90;;;;;;4978602;28;20050;-71
2021/03/28 09:06:26;;;;;;;10.50;5.10;;;8.30;99.90;;;;;;4978560;28;20117;-71
2021/03/28 09:09:03;;;;;;;10.10;5.30;;;8.40;99.90;;;;;;4978415;28;20081;-72
2021/03/28 09:11:55;;;;;;;15.68;5.63;;;8.50;99.90;;;;;;4978475;28;20053;-71
2021/03/28 09:14:29;;;;;;;13.40;5.10;;;8.70;99.90;;;;;;4977460;28;20023;-71
2021/03/28 09:17:03;;;;;;;11.88;4.88;;;8.80;99.90;;;;;;4977269;28;20031;-71
2021/03/28 09:20:06;;;;;;;9.45;4.40;;;8.90;99.90;;;;;;4978352;28;20059;-72
2021/03/28 09:22:49;;;;;;;11.10;4.70;;;8.80;99.90;;;;;;4970611;28;20106;-71
2021/03/28 09:25:54;;;;;;;7.50;4.47;;;8.90;99.90;;;;;;4976388;28;20551;-72
2021/03/28 09:28:36;;;;;;;13.60;4.38;;;9.10;99.90;;;;;;4968509;28;20039;-71
2021/03/28 09:31:10;;;;;;;12.63;4.95;;;9.30;99.90;;;;;;4978488;28;20049;-72
2021/03/28 09:34:08;;;;;;;10.15;4.68;;;9.30;99.90;;;;;;4972892;28;20057;-72
2021/03/28 09:36:48;;;;;;;7.32;4.00;;;9.50;99.90;;;;;;4972256;28;20061;-72
2021/03/28 09:39:21;;;;;;;9.27;4.07;;;9.60;99.90;;;;;;4975178;28;20030;-71
2021/03/28 09:42:16;;;;;;;9.65;4.50;;;9.70;99.90;;;;;;4962412;28;20015;-71
2021/03/28 09:45:28;;;;;;;6.78;4.43;;;9.60;99.90;;;;;;4974959;28;20137;-72
2021/03/28 09:48:21;;;;;;;11.00;4.30;;;9.40;99.90;;;;;;4960117;28;20022;-72
2021/03/28 09:51:01;;;;;;;11.75;4.75;;;9.60;99.90;;;;;;4975168;28;20080;-72
2021/03/28 09:54:10;;;;;;;8.25;3.95;;;9.80;99.90;;;;;;4975022;28;20030;-72
2021/03/28 09:57:10;;;;;;;11.27;5.07;;;10.10;99.90;;;;;;4971251;28;20047;-72
2021/03/28 10:00:20;;;;;;;6.40;4.28;;;10.30;99.90;;;;;;4974917;28;20050;-71
2021/03/28 10:03:14;;;;;;;10.18;4.20;;;10.40;99.90;;;;;;4975047;28;20497;-72
2021/03/28 10:05:40;;;;;;;10.90;4.43;;;10.50;99.90;;;;;;4974533;28;20023;-72
2021/03/28 10:08:08;;;;;;;9.60;4.30;;;10.30;99.90;;;;;;4974756;28;20030;-72
2021/03/28 10:10:55;;;;;;;10.55;4.20;;;10.40;99.90;;;;;;4974981;28;20105;-72
2021/03/28 10:13:50;;;;;;;7.63;3.85;;;10.70;99.90;;;;;;4974869;28;20033;-69
2021/03/28 10:16:49;;;;;;;9.15;3.42;;;11.00;99.90;;;;;;4974846;28;20113;-72
2021/03/28 10:19:26;;;;;;;7.03;3.20;;;11.20;99.90;;;;;;4974933;28;20031;-69
2021/03/28 10:22:04;;;;;;;11.60;3.10;;;11.40;99.90;;;;;;4974595;28;20078;-69
2021/03/28 10:24:47;;;;;;;5.50;3.10;;;11.50;99.90;;;;;;4974186;28;20511;-72
2021/03/28 10:27:37;;;;;;;4.32;2.40;;;11.60;99.90;;;;;;4974594;28;20600;-72
2021/03/28 10:30:29;;;;;;;4.70;2.65;;;11.50;99.90;;;;;;4974483;28;20035;-72
2021/03/28 10:33:22;;;;;;;5.40;2.60;;;11.60;99.90;;;;;;4974523;28;20103;-72
2021/03/28 10:35:53;;;;;;;4.57;2.63;;;11.80;99.90;;;;;;4964220;28;20392;-69
2021/03/28 10:39:14;;;;;;;4.57;2.72;;;11.90;99.90;;;;;;4970866;28;20019;-69
2021/03/28 10:42:07;;;;;;;7.75;3.40;;;11.70;99.90;;;;;;4960422;28;20074;-72
2021/03/28 10:45:10;;;;;;;6.05;2.35;;;11.70;99.90;;;;;;4973603;28;20030;-69
2021/03/28 10:48:02;;;;;;;3.88;2.42;;;12.10;99.90;;;;;;4972781;28;20452;-71
2021/03/28 10:50:50;;;;;;;5.40;2.80;;;11.90;99.90;;;;;;4974110;28;20027;-71
2021/03/28 10:53:44;;;;;;;7.18;2.30;;;11.70;99.90;;;;;;4973985;28;20031;-71
2021/03/28 10:56:38;;;;;;;3.38;2.10;;;11.90;99.90;;;;;;4972554;28;20030;-71
2021/03/28 10:59:34;;;;;;;4.88;2.72;;;12.10;99.90;;;;;;4973978;28;20035;-71
2021/03/28 11:02:26;;;;;;;6.43;2.10;;;12.40;99.90;;;;;;4973915;28;20038;-71
2021/03/28 11:05:10;;;;;;;5.20;2.00;;;12.40;99.90;;;;;;4973570;28;20081;-71
2021/03/28 11:07:48;;;;;;;6.03;2.22;;;11.90;99.90;;;;;;4973676;28;20102;-71
2021/03/28 11:10:50;;;;;;;3.88;2.20;;;11.80;99.90;;;;;;4971603;28;20366;-71
2021/03/28 11:13:49;;;;;;;3.05;2.20;;;11.70;99.90;;;;;;4973652;28;20492;-71
2021/03/28 11:16:27;;;;;;;4.50;2.10;;;12.10;99.90;;;;;;4969351;28;20027;-71
2021/03/28 11:19:30;;;;;;;5.47;2.20;;;12.30;99.90;;;;;;4973435;28;20019;-71
2021/03/28 11:22:31;;;;;;;4.55;2.45;;;12.20;99.90;;;;;;4969462;28;20122;-71
2021/03/28 11:25:06;;;;;;;3.88;2.15;;;12.20;99.90;;;;;;4972825;28;20035;-71
2021/03/28 11:27:53;;;;;;;4.60;2.60;;;12.60;99.90;;;;;;4962618;28;20022;-71
2021/03/28 11:30:38;;;;;;;5.50;2.55;;;12.50;99.90;;;;;;4972763;28;20504;-71
2021/03/28 11:33:26;;;;;;;4.37;2.10;;;12.80;99.90;;;;;;4973107;28;20038;-71
2021/03/28 11:35:55;;;;;;;5.85;2.60;;;12.90;99.90;;;;;;4967830;28;20600;-70
2021/03/28 11:38:31;;;;;;;4.82;2.35;;;12.90;99.90;;;;;;4973072;28;20481;-71
2021/03/28 11:41:06;;;;;;;5.85;2.88;;;12.90;99.90;;;;;;4972963;28;20023;-71
2021/03/28 11:43:36;;;;;;;3.58;2.42;;;12.40;99.90;;;;;;4960532;28;20023;-71
2021/03/28 11:46:04;;;;;;;3.78;2.17;;;12.20;99.90;;;;;;4972960;28;20054;-71
2021/03/28 11:48:52;;;;;;;5.82;2.30;;;12.10;99.90;;;;;;4971786;28;20034;-70
2021/03/28 11:51:42;;;;;;;5.13;2.65;;;12.00;99.90;;;;;;4972895;28;20081;-70
2021/03/28 11:54:12;;;;;;;3.75;2.50;;;12.00;99.90;;;;;;4972757;28;20632;-71
2021/03/28 11:56:53;;;;;;;5.35;2.45;;;12.40;99.90;;;;;;4972006;28;20481;-71
2021/03/28 11:59:23;;;;;;;4.63;2.28;;;12.20;99.90;;;;;;4972891;28;20034;-71
2021/03/28 12:04:33;;;;;;;3.42;2.35;;;11.80;99.90;;;;;;4972506;28;20489;-71
2021/03/28 12:07:25;;;;;;;3.80;2.10;;;11.60;99.90;;;;;;4972876;28;20026;-71
2021/03/28 12:10:00;;;;;;;4.30;2.72;;;12.00;99.90;;;;;;4965005;28;20030;-71
2021/03/28 12:12:43;;;;;;;5.97;2.70;;;12.50;99.90;;;;;;4972482;28;20027;-71
2021/03/28 12:15:43;;;;;;;5.40;2.92;;;12.50;99.90;;;;;;4971456;28;20034;-71
2021/03/28 12:18:24;;;;;;;6.82;2.55;;;13.10;99.90;;;;;;4971673;28;20064;-71
2021/03/28 12:20:59;;;;;;;9.18;3.00;;;12.60;99.90;;;;;;4969954;28;20063;-71
2021/03/28 12:23:28;;;;;;;7.80;2.88;;;12.50;99.90;;;;;;4971555;28;20109;-71
2021/03/28 12:26:22;;;;;;;4.43;2.70;;;13.30;99.90;;;;;;4971020;28;20035;-71
2021/03/28 12:28:56;;;;;;;7.40;2.78;;;14.40;99.90;;;;;;4971500;28;20062;-71
2021/03/28 12:31:30;;;;;;;6.30;2.95;;;15.40;99.90;;;;;;4972596;28;20118;-71
2021/03/28 12:34:07;;;;;;;4.15;2.47;;;15.70;99.50;;;;;;4961138;28;20061;-71
2021/03/28 12:37:05;;;;;;;5.45;2.45;;;16.30;99.40;;;;;;4972661;28;20031;-72
2021/03/28 12:39:32;;;;;;;5.10;2.38;;;16.10;94.80;;;;;;4972711;28;20377;-71
2021/03/28 12:42:03;;;;;;;5.57;2.80;;;16.30;95.50;;;;;;4973048;28;20424;-72
2021/03/28 12:44:40;;;;;;;6.03;2.40;;;16.60;92.50;;;;;;4972405;28;20399;-72
2021/03/28 12:47:18;;;;;;;5.30;2.13;;;16.10;91.90;;;;;;4972699;28;20035;-71
2021/03/28 12:50:00;;;;;;;5.40;2.72;;;14.60;93.70;;;;;;4972554;28;20082;-71
2021/03/28 12:52:37;;;;;;;3.90;2.90;;;14.10;95.40;;;;;;4968041;28;20030;-71
2021/03/28 12:55:08;;;;;;;6.65;3.33;;;15.20;96.30;;;;;;4972286;28;20026;-71
2021/03/28 12:57:50;;;;;;;4.28;2.65;;;15.80;94.80;;;;;;4972502;28;20031;-71
2021/03/28 13:00:42;;;;;;;5.55;3.10;;;17.20;92.70;;;;;;4972530;28;20030;-71
2021/03/28 13:03:31;;;;;;;6.60;3.05;;;16.90;89.50;;;;;;4972643;28;20089;-72
2021/03/28 13:06:02;;;;;;;7.20;3.28;;;18.10;89.30;;;;;;4972338;28;20105;-72
2021/03/28 13:08:30;;;;;;;5.80;3.25;;;18.60;87.50;;;;;;4974451;28;20026;-72
2021/03/28 13:11:02;;;;;;;4.70;2.40;;;18.00;86.60;;;;;;4971396;28;20031;-72
2021/03/28 13:13:29;;;;;;;5.75;3.35;;;17.70;84.40;;;;;;4969882;28;20065;-72
2021/03/28 13:15:58;;;;;;;6.10;2.97;;;18.20;80.30;;;;;;4975833;28;20030;-72
2021/03/28 13:18:30;;;;;;;5.70;3.05;;;18.50;78.80;;;;;;4975763;28;20033;-71
2021/03/28 13:21:17;;;;;;;5.90;2.65;;;18.00;80.40;;;;;;4975941;28;20481;-72
2021/03/28 13:23:48;;;;;;;5.00;3.15;;;17.80;79.80;;;;;;4975660;28;20611;-72
2021/03/28 13:26:35;;;;;;;5.35;2.72;;;17.90;81.20;;;;;;4975759;28;20042;-72
2021/03/28 13:29:06;;;;;;;6.22;2.60;;;19.70;77.70;;;;;;4976024;28;20023;-71
2021/03/28 13:31:50;;;;;;;4.57;2.30;;;19.90;77.20;;;;;;4974341;28;20023;-72
2021/03/28 13:34:23;;;;;;;6.13;3.08;;;20.60;70.70;;;;;;4966856;28;20022;-72
2021/03/28 13:37:02;;;;;;;5.63;3.08;;;20.20;71.40;;;;;;4975666;28;20508;-72
2021/03/28 13:39:30;;;;;;;5.15;2.70;;;19.40;68.50;;;;;;4975637;28;20165;-71
2021/03/28 13:41:58;;;;;;;5.25;2.13;;;18.10;71.20;;;;;;4975411;28;20022;-72
2021/03/28 13:44:59;;;;;;;4.22;2.80;;;17.80;72.20;;;;;;4975033;28;20499;-72
2021/03/28 13:47:51;;;;;;;5.68;2.50;;;18.50;74.90;;;;;;4974272;28;20125;-72
2021/03/28 13:50:37;;;;;;;5.88;2.92;;;19.10;69.80;;;;;;4974829;28;20043;-72
2021/03/28 13:53:17;;;;;;;3.92;3.17;;;18.30;71.20;;;;;;4974243;28;20034;-72
2021/03/28 13:55:45;;;;;;;6.80;3.28;;;19.80;69.80;;;;;;4975289;28;20019;-72
2021/03/28 13:58:17;;;;;;;3.70;2.95;;;19.10;71.10;;;;;;4974395;28;20022;-72
2021/03/28 14:00:44;;;;;;;7.57;2.78;;;17.80;70.20;;;;;;4973824;28;20027;-72
2021/03/28 14:03:28;;;;;;;4.13;2.35;;;18.80;71.80;;;;;;4973848;28;20076;-72
2021/03/28 14:05:54;;;;;;;7.05;2.65;;;18.10;70.30;;;;;;4975087;28;20054;-71
2021/03/28 14:08:26;;;;;;;5.82;3.13;;;17.00;72.00;;;;;;4975014;28;20448;-72
2021/03/28 14:10:59;;;;;;;5.80;2.63;;;16.00;73.00;;;;;;4975013;28;20110;-71
2021/03/28 14:13:34;;;;;;;7.43;2.78;;;17.00;71.50;;;;;;4974724;28;20489;-72
2021/03/28 14:16:00;;;;;;;6.57;3.13;;;18.20;72.40;;;;;;4974677;28;20034;-72
2021/03/28 14:18:45;;;;;;;5.55;2.80;;;17.90;70.60;;;;;;4972666;28;20031;-72
2021/03/28 14:21:29;;;;;;;5.22;2.70;;;17.60;70.00;;;;;;4974631;28;20521;-72
2021/03/28 14:24:12;;;;;;;5.22;2.92;;;19.10;70.60;;;;;;4972836;28;20508;-72
2021/03/28 14:26:45;;;;;;;5.13;2.90;;;19.00;68.50;;;;;;4969798;28;20393;-72
2021/03/28 14:29:35;;;;;;;6.40;2.75;;;19.60;68.40;;;;;;4970164;28;20047;-73
2021/03/28 14:32:04;;;;;;;5.35;2.90;;;19.20;65.80;;;;;;4968439;28;20027;-72
2021/03/28 14:34:46;;;;;;;5.82;3.13;;;19.10;70.90;;;;;;4967629;28;20074;-72
2021/03/28 14:37:14;;;;;;;3.85;2.38;;;20.00;66.30;;;;;;4974501;28;20034;-72
2021/03/28 14:40:16;;;;;;;5.13;2.72;;;20.30;66.00;;;;;;4974632;28;20023;-72
2021/03/28 14:43:25;;;;;;;4.20;2.50;;;20.20;66.00;;;;;;4974392;28;20038;-72